Time;durP1;ratioP1;P1;durP2;ratioP2;P2;SDS_P1;SDS_P2;PMS_P1;PMS_P2;Temp;Humidity;BMP_temperature;BMP_pressure;BME280_temperature;BME280_humidity;BME280_pressure;Samples;Min_cycle;Max_cycle;Signal;HPM_P1;HPM_P2
2022/12/23 00:00:53;;;;;;;32.07;21.50;;;7.10;99.90;;;;;;5124951;27;20254;-83
2022/12/23 00:03:42;;;;;;;31.10;21.30;;;7.10;99.90;;;;;;5100028;27;20658;-82
2022/12/23 00:06:31;;;;;;;26.80;19.13;;;7.10;99.90;;;;;;5101325;27;20217;-79
2022/12/23 00:09:22;;;;;;;29.33;19.80;;;7.10;99.90;;;;;;5102875;28;20313;-80
2022/12/23 00:15:17;;;;;;;33.73;20.87;;;7.10;99.90;;;;;;5102238;27;20226;-80
2022/12/23 00:18:05;;;;;;;31.00;20.27;;;7.10;99.90;;;;;;5125453;27;20444;-81
2022/12/23 00:20:58;;;;;;;27.43;20.33;;;7.20;99.90;;;;;;5101172;27;20221;-79
2022/12/23 00:23:55;;;;;;;30.00;19.60;;;7.20;99.90;;;;;;5092786;27;20224;-80
2022/12/23 00:26:45;;;;;;;28.53;19.27;;;7.10;99.90;;;;;;5100030;27;20363;-82
2022/12/23 00:29:35;;;;;;;28.87;19.90;;;7.20;99.90;;;;;;5096772;28;20220;-82
2022/12/23 00:32:23;;;;;;;27.70;19.00;;;7.10;99.90;;;;;;5088062;28;20720;-83
2022/12/23 00:35:12;;;;;;;32.03;19.60;;;7.10;99.90;;;;;;5123192;27;20369;-83
2022/12/23 00:38:01;;;;;;;32.47;19.80;;;7.20;99.90;;;;;;5096336;27;20254;-83
2022/12/23 00:43:58;;;;;;;32.00;20.17;;;7.30;99.90;;;;;;5093289;27;20366;-80
2022/12/23 00:46:47;;;;;;;29.93;20.37;;;7.30;99.90;;;;;;5098297;27;20559;-79
2022/12/23 00:49:41;;;;;;;31.47;20.83;;;7.30;99.90;;;;;;5130707;27;20229;-80
2022/12/23 00:52:30;;;;;;;33.53;21.70;;;7.30;99.90;;;;;;5097115;27;20222;-81
2022/12/23 00:55:19;;;;;;;32.23;21.57;;;7.30;99.90;;;;;;5102774;27;20298;-80
2022/12/23 00:58:08;;;;;;;37.10;22.90;;;7.30;99.90;;;;;;5102978;27;20271;-77
2022/12/23 01:07:27;;;;;;;36.93;20.87;;;7.30;99.90;;;;;;5040767;28;20252;-75
2022/12/23 01:10:16;;;;;;;39.67;22.00;;;7.30;99.90;;;;;;5108896;27;20807;-78
2022/12/23 01:13:06;;;;;;;37.63;22.70;;;7.20;99.90;;;;;;5095570;28;20291;-78
2022/12/23 01:16:02;;;;;;;45.27;23.93;;;7.20;99.90;;;;;;5099274;27;20223;-78
2022/12/23 01:18:50;;;;;;;39.23;23.23;;;7.30;99.90;;;;;;5098247;27;20249;-78
2022/12/23 01:21:40;;;;;;;42.17;24.10;;;7.30;99.90;;;;;;5095291;27;20250;-80
2022/12/23 01:24:30;;;;;;;40.37;22.87;;;7.30;99.90;;;;;;5096760;28;20227;-81
2022/12/23 01:27:19;;;;;;;36.23;22.20;;;7.30;99.90;;;;;;5098934;28;20226;-78
2022/12/23 01:30:08;;;;;;;40.20;22.83;;;7.30;99.90;;;;;;5098833;27;20229;-78
2022/12/23 01:32:59;;;;;;;42.53;24.10;;;7.30;99.90;;;;;;5100169;27;20215;-80
2022/12/23 01:35:48;;;;;;;41.00;23.20;;;7.30;99.90;;;;;;5095386;27;20601;-80
2022/12/23 01:38:36;;;;;;;41.57;23.87;;;7.30;99.90;;;;;;5111470;27;20372;-80
2022/12/23 01:45:06;;;;;;;43.17;23.17;;;7.40;99.90;;;;;;5116170;27;20237;-78
2022/12/23 01:47:58;;;;;;;39.83;23.70;;;7.30;99.90;;;;;;5035886;28;20314;-78
2022/12/23 01:50:51;;;;;;;37.97;23.43;;;7.40;99.90;;;;;;5093572;27;20308;-78
2022/12/23 01:53:44;;;;;;;36.23;22.83;;;7.40;99.90;;;;;;5094052;28;20562;-79
2022/12/23 01:56:38;;;;;;;41.83;24.03;;;7.50;99.90;;;;;;5122017;27;20231;-79
2022/12/23 02:05:39;;;;;;;44.17;24.50;;;7.40;99.90;;;;;;5105184;27;20226;-81
2022/12/23 02:11:49;;;;;;;40.30;24.10;;;7.40;99.90;;;;;;5120515;28;20237;-80
2022/12/23 02:18:15;;;;;;;41.33;23.47;;;7.40;99.90;;;;;;5129764;27;20231;-81
2022/12/23 02:21:30;;;;;;;37.70;23.23;;;7.40;99.90;;;;;;5096494;28;20227;-80
2022/12/23 02:25:07;;;;;;;41.97;23.40;;;7.40;99.90;;;;;;5107187;27;20241;-80
2022/12/23 02:28:18;;;;;;;40.20;23.93;;;7.50;99.90;;;;;;5058901;28;20217;-81
2022/12/23 02:31:11;;;;;;;40.67;23.20;;;7.50;99.90;;;;;;5121909;27;20222;-79
2022/12/23 02:34:09;;;;;;;44.10;23.87;;;7.50;99.90;;;;;;5092492;28;20234;-80
2022/12/23 02:37:03;;;;;;;40.77;23.30;;;7.60;99.90;;;;;;5094133;27;20220;-82
2022/12/23 02:39:58;;;;;;;38.90;23.40;;;7.60;99.90;;;;;;5105902;27;20285;-83
2022/12/23 02:42:53;;;;;;;38.23;22.77;;;7.60;99.90;;;;;;5089371;27;20223;-83
2022/12/23 02:45:46;;;;;;;38.03;21.67;;;7.50;99.90;;;;;;5098016;27;20376;-79
2022/12/23 02:48:42;;;;;;;40.97;23.03;;;7.60;99.90;;;;;;5097882;28;20288;-77
2022/12/23 02:51:34;;;;;;;41.97;22.98;;;7.60;99.90;;;;;;5097465;27;20227;-77
2022/12/23 02:54:28;;;;;;;39.47;22.17;;;7.60;99.90;;;;;;5089547;27;20222;-77
2022/12/23 02:57:21;;;;;;;39.00;23.07;;;7.60;99.90;;;;;;5102087;27;20222;-79
2022/12/23 03:00:11;;;;;;;38.70;22.30;;;7.60;99.90;;;;;;5099540;27;20724;-79
2022/12/23 03:03:00;;;;;;;35.00;22.27;;;7.70;99.90;;;;;;5122198;27;20229;-79
2022/12/23 03:05:52;;;;;;;35.83;21.47;;;7.70;99.90;;;;;;5100998;27;20712;-78
2022/12/23 03:08:44;;;;;;;37.87;21.50;;;7.70;99.90;;;;;;5095769;27;20219;-81
2022/12/23 03:11:43;;;;;;;36.95;21.42;;;7.70;99.90;;;;;;5093818;27;20717;-80
2022/12/23 03:14:50;;;;;;;36.40;21.40;;;7.60;99.90;;;;;;5103253;27;20306;-80
2022/12/23 03:17:53;;;;;;;34.53;20.80;;;7.70;99.90;;;;;;5090164;27;20238;-80
2022/12/23 03:21:13;;;;;;;35.13;21.20;;;7.70;99.90;;;;;;5098186;27;20718;-82
2022/12/23 03:24:12;;;;;;;36.37;22.20;;;7.70;99.90;;;;;;5108025;27;20227;-80
2022/12/23 03:27:05;;;;;;;37.03;22.43;;;7.70;99.90;;;;;;5095084;27;20522;-80
2022/12/23 03:29:59;;;;;;;36.03;22.07;;;7.70;99.90;;;;;;5100319;27;20225;-80
2022/12/23 03:32:52;;;;;;;35.40;21.83;;;7.70;99.90;;;;;;5090482;27;20300;-81
2022/12/23 03:35:45;;;;;;;38.10;22.73;;;7.70;99.90;;;;;;5099090;27;20927;-81
2022/12/23 03:38:38;;;;;;;36.07;21.97;;;7.70;99.90;;;;;;5125970;27;20247;-82
2022/12/23 03:41:31;;;;;;;39.03;23.37;;;7.80;99.90;;;;;;5123555;27;20223;-82
2022/12/23 03:44:24;;;;;;;38.07;22.43;;;7.80;99.90;;;;;;5095830;27;20571;-82
2022/12/23 03:47:17;;;;;;;38.33;23.13;;;7.80;99.90;;;;;;5088303;27;20246;-83
2022/12/23 03:50:09;;;;;;;35.47;22.33;;;7.80;99.90;;;;;;5100914;27;20239;-82
2022/12/23 03:53:02;;;;;;;37.27;22.03;;;7.80;99.90;;;;;;5102007;27;20216;-80
2022/12/23 03:55:59;;;;;;;36.63;22.30;;;7.80;99.90;;;;;;5094825;27;20383;-82
2022/12/23 03:58:53;;;;;;;35.75;22.85;;;7.70;99.90;;;;;;5096591;28;20234;-81
2022/12/23 04:01:48;;;;;;;33.85;21.38;;;7.70;99.90;;;;;;5091413;28;20238;-81
2022/12/23 04:04:56;;;;;;;37.65;21.52;;;7.80;99.90;;;;;;5094283;27;20223;-80
2022/12/23 04:07:51;;;;;;;34.80;21.57;;;7.70;99.90;;;;;;5089881;28;20226;-80
2022/12/23 04:10:40;;;;;;;33.97;20.80;;;7.80;99.90;;;;;;5091786;28;20233;-80
2022/12/23 04:13:31;;;;;;;33.73;20.83;;;7.90;99.90;;;;;;5091335;27;20222;-79
2022/12/23 04:16:20;;;;;;;31.63;20.60;;;7.90;99.90;;;;;;5101298;27;20244;-79
2022/12/23 04:19:09;;;;;;;28.98;19.20;;;7.90;99.90;;;;;;5099037;28;20234;-79
2022/12/23 04:21:58;;;;;;;28.77;20.03;;;7.90;99.90;;;;;;5106438;27;21096;-80
2022/12/23 04:24:47;;;;;;;29.77;20.63;;;7.80;99.90;;;;;;5100105;27;20709;-79
2022/12/23 04:27:36;;;;;;;30.13;19.67;;;7.90;99.90;;;;;;5103969;27;20227;-79
2022/12/23 04:30:26;;;;;;;33.72;20.60;;;7.90;99.90;;;;;;5100979;28;20222;-79
2022/12/23 04:33:22;;;;;;;31.20;20.30;;;7.90;99.90;;;;;;5095730;27;20245;-83
2022/12/23 04:36:11;;;;;;;35.15;21.70;;;7.80;99.90;;;;;;5100801;28;20227;-82
2022/12/23 04:39:00;;;;;;;37.33;21.63;;;7.80;99.90;;;;;;5103279;27;20233;-83
2022/12/23 04:41:48;;;;;;;33.23;20.47;;;7.80;99.90;;;;;;5120851;27;20215;-82
2022/12/23 04:44:37;;;;;;;34.53;20.67;;;7.80;99.90;;;;;;5098392;28;20234;-83
2022/12/23 04:47:27;;;;;;;32.00;20.93;;;7.80;99.90;;;;;;5096841;27;20305;-82
2022/12/23 04:50:17;;;;;;;32.70;20.98;;;7.90;99.90;;;;;;5096528;28;20690;-82
2022/12/23 04:53:06;;;;;;;34.13;20.45;;;7.90;99.90;;;;;;5096652;27;20223;-82
2022/12/23 04:55:55;;;;;;;31.08;21.08;;;7.80;99.90;;;;;;5106622;27;20297;-81
2022/12/23 04:58:43;;;;;;;32.25;20.75;;;7.80;99.90;;;;;;5102591;27;20771;-81
2022/12/23 05:01:32;;;;;;;34.40;21.83;;;7.80;99.90;;;;;;5099672;27;20222;-81
2022/12/23 05:04:22;;;;;;;29.40;21.05;;;7.80;99.90;;;;;;5101743;28;20566;-82
2022/12/23 05:07:11;;;;;;;31.92;21.27;;;7.70;99.90;;;;;;5091954;27;20688;-81
2022/12/23 05:10:00;;;;;;;31.08;21.17;;;7.70;99.90;;;;;;5099881;27;20215;-81
2022/12/23 05:12:49;;;;;;;31.83;20.17;;;7.70;99.90;;;;;;5096819;27;20260;-81
2022/12/23 05:15:38;;;;;;;34.90;22.13;;;7.70;99.90;;;;;;5096882;28;20234;-82
2022/12/23 05:18:27;;;;;;;31.00;21.13;;;7.70;99.90;;;;;;5092583;28;20227;-81
2022/12/23 05:21:18;;;;;;;31.90;21.77;;;7.70;99.90;;;;;;5121205;27;20638;-82
2022/12/23 05:24:07;;;;;;;31.48;20.95;;;7.70;99.90;;;;;;5119157;27;20226;-80
2022/12/23 05:26:55;;;;;;;29.00;19.58;;;7.70;99.90;;;;;;5097336;27;20218;-80
2022/12/23 05:29:48;;;;;;;26.95;18.20;;;7.70;99.90;;;;;;5127105;27;20231;-80
2022/12/23 05:32:38;;;;;;;27.50;19.17;;;7.70;99.90;;;;;;5092418;27;20223;-80
2022/12/23 05:35:27;;;;;;;27.90;19.70;;;7.60;99.90;;;;;;5104748;27;20284;-79
2022/12/23 05:38:18;;;;;;;27.87;19.63;;;7.70;99.90;;;;;;5095043;28;20264;-80
2022/12/23 05:41:07;;;;;;;30.05;20.17;;;7.60;99.90;;;;;;5093664;28;20234;-80
2022/12/23 05:43:55;;;;;;;32.00;20.97;;;7.70;99.90;;;;;;5094625;27;20997;-79
2022/12/23 05:46:45;;;;;;;31.70;19.50;;;7.60;99.90;;;;;;5102343;27;20219;-80
2022/12/23 05:49:33;;;;;;;29.13;19.38;;;7.70;99.90;;;;;;5104800;27;20246;-80
2022/12/23 05:52:22;;;;;;;28.35;19.25;;;7.50;99.90;;;;;;5117516;27;20240;-80
2022/12/23 05:55:12;;;;;;;28.48;20.33;;;7.60;99.90;;;;;;5120942;27;20345;-80
2022/12/23 05:58:02;;;;;;;30.13;21.13;;;7.50;99.90;;;;;;5106221;27;20233;-79
2022/12/23 06:00:50;;;;;;;32.20;22.00;;;7.60;99.90;;;;;;5090351;28;20219;-79
2022/12/23 06:03:39;;;;;;;34.13;22.37;;;7.50;99.90;;;;;;5096502;27;20254;-79
2022/12/23 06:06:28;;;;;;;34.67;22.95;;;7.60;99.90;;;;;;5102084;27;20228;-79
2022/12/23 06:09:17;;;;;;;32.60;22.30;;;7.50;99.90;;;;;;5090048;27;20230;-78
2022/12/23 06:12:08;;;;;;;34.10;22.77;;;7.50;99.90;;;;;;5089671;28;20237;-80
2022/12/23 06:14:56;;;;;;;31.08;22.63;;;7.50;99.90;;;;;;5092047;27;20663;-79
2022/12/23 06:17:45;;;;;;;29.80;20.98;;;7.50;99.90;;;;;;5100212;27;20222;-80
2022/12/23 06:20:34;;;;;;;29.43;20.63;;;7.40;99.90;;;;;;5126374;27;20216;-80
2022/12/23 06:23:23;;;;;;;31.87;21.40;;;7.30;99.90;;;;;;5114877;27;20223;-79
2022/12/23 06:26:11;;;;;;;33.10;21.27;;;7.30;99.90;;;;;;5096649;27;20223;-79
2022/12/23 06:29:02;;;;;;;30.27;20.75;;;7.30;99.90;;;;;;5093751;28;20227;-80
2022/12/23 06:31:51;;;;;;;33.20;21.40;;;7.40;99.90;;;;;;5092598;28;20326;-79
2022/12/23 06:34:40;;;;;;;31.43;20.70;;;7.40;99.90;;;;;;5109408;27;20230;-77
2022/12/23 06:37:29;;;;;;;34.97;21.08;;;7.30;99.90;;;;;;5098223;28;21442;-79
2022/12/23 06:40:18;;;;;;;30.00;20.97;;;7.40;99.90;;;;;;5101549;27;21066;-80
2022/12/23 06:43:08;;;;;;;31.07;21.37;;;7.40;99.90;;;;;;5099595;27;20223;-79
2022/12/23 06:45:58;;;;;;;31.40;21.83;;;7.30;99.90;;;;;;5101515;27;20233;-79
2022/12/23 06:48:47;;;;;;;34.47;21.20;;;7.30;99.90;;;;;;5100440;28;20226;-79
2022/12/23 06:51:36;;;;;;;33.43;21.93;;;7.30;99.90;;;;;;5103562;27;20220;-79
2022/12/23 06:54:25;;;;;;;28.73;19.77;;;7.30;99.90;;;;;;5109007;27;20244;-79
2022/12/23 06:57:14;;;;;;;27.57;20.00;;;7.40;99.90;;;;;;5096776;28;20579;-79
2022/12/23 07:00:04;;;;;;;29.85;20.75;;;7.30;99.90;;;;;;5093918;27;20368;-79
2022/12/23 07:02:54;;;;;;;30.60;20.77;;;7.40;99.90;;;;;;5098759;28;20578;-79
2022/12/23 07:05:47;;;;;;;30.20;20.73;;;7.40;99.90;;;;;;5091504;28;20348;-79
2022/12/23 07:08:35;;;;;;;30.23;20.53;;;7.30;99.90;;;;;;5123008;27;20920;-78
2022/12/23 07:11:25;;;;;;;30.73;21.70;;;7.30;99.90;;;;;;5095124;28;20708;-82
2022/12/23 07:14:14;;;;;;;28.47;21.67;;;7.30;99.90;;;;;;5098713;27;20223;-82
2022/12/23 07:17:02;;;;;;;28.30;21.27;;;7.20;99.90;;;;;;5091561;27;20596;-80
2022/12/23 07:19:53;;;;;;;30.07;21.03;;;7.30;99.90;;;;;;5101659;27;20823;-79
2022/12/23 07:22:41;;;;;;;31.43;21.07;;;7.30;99.90;;;;;;5094524;28;20721;-78
2022/12/23 07:25:30;;;;;;;29.47;20.57;;;7.40;99.90;;;;;;5094700;28;20234;-79
2022/12/23 07:28:19;;;;;;;30.53;21.33;;;7.40;99.90;;;;;;5101163;27;20225;-80
2022/12/23 07:31:08;;;;;;;30.60;21.03;;;7.40;99.90;;;;;;5092779;27;20341;-81
2022/12/23 07:33:57;;;;;;;25.80;18.80;;;7.50;99.90;;;;;;5092257;27;20219;-80
2022/12/23 07:36:47;;;;;;;25.80;19.97;;;7.40;99.90;;;;;;5096968;27;20779;-81
2022/12/23 07:39:36;;;;;;;29.70;20.13;;;7.40;99.90;;;;;;5092095;28;20238;-80
2022/12/23 07:42:25;;;;;;;29.50;20.37;;;7.30;99.90;;;;;;5096678;28;20303;-79
2022/12/23 07:45:33;;;;;;;28.53;20.73;;;7.30;99.90;;;;;;5126992;27;20223;-81
2022/12/23 07:48:23;;;;;;;28.77;20.47;;;7.30;99.90;;;;;;5089711;28;20229;-80
2022/12/23 07:51:12;;;;;;;28.53;20.13;;;7.30;99.90;;;;;;5100569;27;20226;-81
2022/12/23 07:54:02;;;;;;;29.63;19.37;;;7.40;99.90;;;;;;5117944;27;20517;-81
2022/12/23 07:56:56;;;;;;;27.33;20.33;;;7.30;99.90;;;;;;5122963;27;20374;-78
2022/12/23 07:59:45;;;;;;;27.10;20.57;;;7.40;99.90;;;;;;5106389;27;20229;-78
2022/12/23 08:02:34;;;;;;;28.27;21.57;;;7.40;99.90;;;;;;5096057;28;21096;-80
2022/12/23 08:05:24;;;;;;;27.60;19.75;;;7.40;99.90;;;;;;5101467;27;20218;-80
2022/12/23 08:08:13;;;;;;;27.00;19.57;;;7.40;99.90;;;;;;5097011;27;20238;-82
2022/12/23 08:11:05;;;;;;;28.60;20.43;;;7.40;99.90;;;;;;5098958;27;20226;-80
2022/12/23 08:13:53;;;;;;;27.00;20.37;;;7.30;99.90;;;;;;5090452;28;20306;-81
2022/12/23 08:16:42;;;;;;;28.00;19.90;;;7.20;99.90;;;;;;5093505;27;20903;-81
2022/12/23 08:19:32;;;;;;;28.70;20.40;;;7.20;99.90;;;;;;5125670;27;20221;-82
2022/12/23 08:22:20;;;;;;;26.58;20.38;;;7.20;99.90;;;;;;5095454;27;20240;-81
2022/12/23 08:25:10;;;;;;;29.40;21.13;;;7.20;99.90;;;;;;5095861;28;20730;-79
2022/12/23 08:28:00;;;;;;;29.90;21.67;;;7.30;99.90;;;;;;5119131;27;23035;-81
2022/12/23 08:30:49;;;;;;;27.65;20.67;;;7.30;99.90;;;;;;5116712;27;20238;-82
2022/12/23 08:33:40;;;;;;;31.77;21.27;;;7.20;99.90;;;;;;5093336;28;20728;-82
2022/12/23 08:36:31;;;;;;;30.20;20.73;;;7.30;99.90;;;;;;5096239;28;20215;-81
2022/12/23 08:39:20;;;;;;;30.07;20.63;;;7.30;99.90;;;;;;5090030;28;20222;-81
2022/12/23 08:42:08;;;;;;;31.10;21.97;;;7.30;99.90;;;;;;5096003;27;20752;-79
2022/12/23 08:44:59;;;;;;;28.70;21.30;;;7.40;99.90;;;;;;5089163;28;20560;-79
2022/12/23 08:47:48;;;;;;;30.45;20.98;;;7.40;99.90;;;;;;5095202;27;20223;-79
2022/12/23 08:50:38;;;;;;;29.60;20.98;;;7.40;99.90;;;;;;5088304;28;20322;-80
2022/12/23 08:53:27;;;;;;;29.80;20.70;;;7.30;99.90;;;;;;5098833;28;20293;-80
2022/12/23 08:56:18;;;;;;;28.83;20.95;;;7.40;99.90;;;;;;5126432;27;20227;-81
2022/12/23 08:59:11;;;;;;;30.27;21.23;;;7.50;99.90;;;;;;5097237;27;20250;-79
2022/12/23 09:02:10;;;;;;;35.25;21.67;;;7.50;99.90;;;;;;5104794;27;20222;-82
2022/12/23 09:04:59;;;;;;;29.73;20.43;;;7.60;99.90;;;;;;5098053;27;20239;-80
2022/12/23 09:07:48;;;;;;;31.60;20.87;;;7.70;99.90;;;;;;5091516;28;20220;-80
2022/12/23 09:10:41;;;;;;;32.03;21.63;;;7.70;99.90;;;;;;5095715;28;20242;-82
2022/12/23 09:13:30;;;;;;;32.07;20.87;;;7.70;99.90;;;;;;5120846;27;20215;-83
2022/12/23 09:16:23;;;;;;;32.77;21.60;;;7.70;99.90;;;;;;5129908;27;20805;-83
2022/12/23 09:19:14;;;;;;;35.80;23.58;;;7.70;99.90;;;;;;5100148;27;20550;-83
2022/12/23 09:22:03;;;;;;;34.30;22.45;;;7.70;99.90;;;;;;5092824;28;20241;-82
2022/12/23 09:24:51;;;;;;;36.42;21.73;;;7.80;99.90;;;;;;5098301;27;20225;-82
2022/12/23 09:27:41;;;;;;;35.53;22.48;;;7.80;99.90;;;;;;5102619;28;20234;-79
2022/12/23 09:30:30;;;;;;;33.40;23.10;;;7.70;99.90;;;;;;5106913;27;20219;-82
2022/12/23 09:33:19;;;;;;;32.85;22.02;;;7.80;99.90;;;;;;5098389;27;20223;-82
2022/12/23 09:36:10;;;;;;;33.03;21.67;;;7.80;99.90;;;;;;5093582;28;20223;-82
2022/12/23 09:39:02;;;;;;;37.67;24.02;;;7.80;99.90;;;;;;5086536;28;20227;-82
2022/12/23 09:42:02;;;;;;;35.50;23.45;;;7.90;99.90;;;;;;5099708;27;20264;-82
2022/12/23 09:45:17;;;;;;;34.60;22.57;;;7.90;99.90;;;;;;5088423;28;20314;-82
2022/12/23 09:48:13;;;;;;;33.13;21.77;;;7.80;99.90;;;;;;5115369;27;20219;-82
2022/12/23 09:51:04;;;;;;;38.08;23.00;;;7.90;99.90;;;;;;5102010;28;20227;-82
2022/12/23 09:54:00;;;;;;;31.55;22.42;;;7.80;99.90;;;;;;5096115;27;20999;-82
2022/12/23 09:56:54;;;;;;;33.50;22.07;;;7.80;99.90;;;;;;5103280;27;20219;-82
2022/12/23 09:59:59;;;;;;;34.20;21.57;;;7.80;99.90;;;;;;5086362;27;20226;-82
2022/12/23 10:03:02;;;;;;;34.97;23.27;;;7.90;99.90;;;;;;5112796;27;20610;-82
2022/12/23 10:06:02;;;;;;;36.88;23.35;;;7.90;99.90;;;;;;5092772;27;20773;-82
2022/12/23 10:08:58;;;;;;;31.98;21.65;;;8.00;99.90;;;;;;5111821;27;20760;-82
2022/12/23 10:11:50;;;;;;;31.40;21.10;;;7.90;99.90;;;;;;5110970;27;20222;-78
2022/12/23 10:14:43;;;;;;;33.17;21.53;;;7.90;99.90;;;;;;5115150;27;20215;-83
2022/12/23 10:17:38;;;;;;;33.70;22.13;;;7.80;99.90;;;;;;5107025;27;20653;-82
2022/12/23 10:20:36;;;;;;;37.13;22.93;;;7.80;99.90;;;;;;5107519;27;20773;-81
2022/12/23 10:23:30;;;;;;;35.55;22.95;;;7.80;99.90;;;;;;5096105;27;20758;-80
2022/12/23 10:26:24;;;;;;;33.28;21.80;;;7.80;99.90;;;;;;5097410;28;20210;-81
2022/12/23 10:29:17;;;;;;;34.13;22.63;;;7.70;99.90;;;;;;5101032;27;20223;-81
2022/12/23 10:32:18;;;;;;;32.75;21.52;;;7.80;99.90;;;;;;5098773;27;20264;-82
2022/12/23 10:35:15;;;;;;;32.15;21.10;;;7.80;99.90;;;;;;5096319;27;20227;-80
2022/12/23 10:38:18;;;;;;;36.58;22.75;;;7.80;99.90;;;;;;5102739;27;20804;-77
2022/12/23 10:41:18;;;;;;;34.05;22.27;;;7.70;99.90;;;;;;5097002;28;20745;-79
2022/12/23 10:44:32;;;;;;;34.83;23.02;;;7.70;99.90;;;;;;5105453;27;20231;-78
2022/12/23 10:47:33;;;;;;;37.23;23.13;;;7.70;99.90;;;;;;5090951;28;20253;-78
2022/12/23 10:50:56;;;;;;;37.95;23.27;;;7.80;99.90;;;;;;5100242;27;20672;-80
2022/12/23 10:53:51;;;;;;;34.17;22.70;;;7.80;99.90;;;;;;5129330;27;20221;-80
2022/12/23 10:56:40;;;;;;;32.88;22.48;;;7.80;99.90;;;;;;5100846;27;20218;-79
2022/12/23 10:59:32;;;;;;;35.05;23.65;;;7.80;99.90;;;;;;5128200;27;20223;-79
2022/12/23 11:02:45;;;;;;;35.20;22.70;;;7.80;99.90;;;;;;5094049;28;20503;-79
2022/12/23 11:05:35;;;;;;;35.77;22.73;;;7.80;99.90;;;;;;5098768;28;20590;-80
2022/12/23 11:08:26;;;;;;;37.30;24.20;;;7.70;99.90;;;;;;5100794;28;20214;-79
2022/12/23 11:11:15;;;;;;;38.33;24.70;;;7.70;99.90;;;;;;5102081;27;20218;-79
2022/12/23 11:14:04;;;;;;;38.83;25.23;;;7.70;99.90;;;;;;5126678;27;20230;-79
2022/12/23 11:16:54;;;;;;;40.73;25.10;;;7.70;99.90;;;;;;5105128;27;20275;-80
2022/12/23 11:19:43;;;;;;;39.80;25.53;;;7.70;99.90;;;;;;5111760;27;20229;-79
2022/12/23 11:22:32;;;;;;;38.05;25.38;;;7.70;99.90;;;;;;5102911;28;20223;-79
2022/12/23 11:25:42;;;;;;;40.17;25.33;;;7.70;99.90;;;;;;5102772;27;20724;-78
2022/12/23 11:28:33;;;;;;;45.30;25.52;;;7.70;99.90;;;;;;5111035;27;20238;-81
2022/12/23 11:31:27;;;;;;;40.45;25.58;;;7.70;99.90;;;;;;5102458;27;20223;-79
2022/12/23 11:34:20;;;;;;;41.35;26.50;;;7.70;99.90;;;;;;5102583;27;20227;-78
2022/12/23 11:37:25;;;;;;;40.42;26.45;;;7.70;99.90;;;;;;5114124;27;20612;-75
2022/12/23 11:40:22;;;;;;;42.03;26.23;;;7.60;99.90;;;;;;5115924;27;20214;-78
2022/12/23 11:43:15;;;;;;;44.75;28.05;;;7.70;99.90;;;;;;5101345;27;20324;-77
2022/12/23 11:46:16;;;;;;;41.55;26.33;;;7.70;99.90;;;;;;5119603;27;20606;-79
2022/12/23 11:49:15;;;;;;;41.97;27.20;;;7.60;99.90;;;;;;5093801;27;20223;-78
2022/12/23 11:52:12;;;;;;;45.25;26.70;;;7.50;99.90;;;;;;5106451;27;20233;-78
2022/12/23 11:55:03;;;;;;;42.88;27.40;;;7.60;99.90;;;;;;5098278;28;20230;-79
2022/12/23 11:57:53;;;;;;;44.53;27.83;;;7.50;99.90;;;;;;5089857;28;20225;-79
2022/12/23 12:00:49;;;;;;;42.47;27.48;;;7.60;99.90;;;;;;5098249;27;20263;-79
2022/12/23 12:03:52;;;;;;;45.47;26.33;;;7.50;99.90;;;;;;5098754;27;20689;-78
2022/12/23 12:06:44;;;;;;;40.50;26.90;;;7.50;99.90;;;;;;5096647;27;20226;-79
2022/12/23 12:09:42;;;;;;;42.87;25.97;;;7.60;99.90;;;;;;5098003;28;20223;-79
2022/12/23 12:12:32;;;;;;;43.42;27.25;;;7.50;99.90;;;;;;5121989;27;20221;-79
2022/12/23 12:15:35;;;;;;;41.60;26.95;;;7.60;99.90;;;;;;5119199;27;20760;-79
2022/12/23 12:18:25;;;;;;;42.92;26.98;;;7.60;99.90;;;;;;5112430;27;20214;-79
2022/12/23 12:21:18;;;;;;;41.43;26.63;;;7.60;99.90;;;;;;5090340;27;20692;-78
2022/12/23 12:24:15;;;;;;;41.97;26.67;;;7.50;99.90;;;;;;5124979;27;20341;-79
2022/12/23 12:27:11;;;;;;;40.78;26.05;;;7.70;99.90;;;;;;5098796;27;20222;-78
2022/12/23 12:30:05;;;;;;;41.93;27.20;;;7.60;99.90;;;;;;5092660;27;20318;-79
2022/12/23 12:33:03;;;;;;;43.00;27.77;;;7.60;99.90;;;;;;5090344;28;20305;-79
2022/12/23 12:35:59;;;;;;;40.93;26.50;;;7.60;99.90;;;;;;5099203;27;20791;-78
2022/12/23 12:38:56;;;;;;;41.13;27.63;;;7.70;99.90;;;;;;5112617;27;20235;-79
2022/12/23 12:41:52;;;;;;;44.53;28.42;;;7.70;99.90;;;;;;5099536;27;20227;-79
2022/12/23 12:44:51;;;;;;;43.97;27.37;;;7.60;99.90;;;;;;5092461;27;20215;-80
2022/12/23 12:47:46;;;;;;;44.33;27.60;;;7.60;99.90;;;;;;5104052;27;20220;-79
2022/12/23 12:50:59;;;;;;;39.13;26.50;;;7.50;99.90;;;;;;5104022;27;20701;-78
2022/12/23 12:54:00;;;;;;;44.03;27.10;;;7.60;99.90;;;;;;5105491;27;20212;-79
2022/12/23 12:56:55;;;;;;;42.72;27.27;;;7.60;99.90;;;;;;5104683;27;20230;-78
2022/12/23 12:59:50;;;;;;;43.25;27.48;;;7.60;99.90;;;;;;5110371;27;20214;-78
2022/12/23 13:02:59;;;;;;;45.45;27.95;;;7.70;99.90;;;;;;5098621;28;20237;-78
2022/12/23 13:06:13;;;;;;;44.33;27.43;;;7.60;99.90;;;;;;5095580;28;20230;-79
2022/12/23 13:09:07;;;;;;;42.50;27.63;;;7.50;99.90;;;;;;5100277;27;20227;-78
2022/12/23 13:12:05;;;;;;;41.30;26.85;;;7.60;99.90;;;;;;5103495;27;20211;-79
2022/12/23 13:15:03;;;;;;;43.95;28.23;;;7.60;99.90;;;;;;5113249;27;20223;-78
2022/12/23 13:18:05;;;;;;;41.00;27.33;;;7.60;99.90;;;;;;5103229;27;20899;-78
2022/12/23 13:21:00;;;;;;;44.90;27.83;;;7.60;99.90;;;;;;5113060;27;20317;-79
2022/12/23 13:23:54;;;;;;;42.28;27.88;;;7.60;99.90;;;;;;5097513;27;20231;-78
2022/12/23 13:27:05;;;;;;;40.15;27.27;;;7.60;99.90;;;;;;5096394;27;20226;-79
2022/12/23 13:30:04;;;;;;;40.60;26.23;;;7.70;99.90;;;;;;5100773;28;20261;-79
2022/12/23 13:33:08;;;;;;;42.47;27.63;;;7.70;99.90;;;;;;5099921;27;20403;-78
2022/12/23 13:36:31;;;;;;;42.37;26.30;;;7.70;99.90;;;;;;5093408;28;20304;-80
2022/12/23 13:39:31;;;;;;;42.38;27.40;;;7.70;99.90;;;;;;5104056;27;20321;-79
2022/12/23 13:42:28;;;;;;;40.00;25.67;;;7.70;99.90;;;;;;5103714;27;20219;-78
2022/12/23 13:45:20;;;;;;;40.25;26.55;;;7.70;99.90;;;;;;5102162;27;20219;-78
2022/12/23 13:48:24;;;;;;;38.97;25.53;;;7.70;99.90;;;;;;5095352;27;20219;-79
2022/12/23 13:51:18;;;;;;;39.73;26.13;;;7.70;99.90;;;;;;5123233;27;20706;-79
2022/12/23 13:54:20;;;;;;;41.80;25.27;;;7.80;99.90;;;;;;5098079;27;20245;-79
2022/12/23 13:57:24;;;;;;;39.67;25.15;;;7.80;99.90;;;;;;5101926;27;20239;-79
2022/12/23 14:00:29;;;;;;;39.43;25.87;;;7.80;99.90;;;;;;5096233;27;20248;-79
2022/12/23 14:03:24;;;;;;;39.80;26.80;;;7.80;99.90;;;;;;5100898;28;20219;-77
2022/12/23 14:06:40;;;;;;;38.15;25.88;;;7.90;99.90;;;;;;5094258;27;20716;-79
2022/12/23 14:09:33;;;;;;;46.25;25.48;;;7.90;99.90;;;;;;5096188;28;20275;-78
2022/12/23 14:12:26;;;;;;;42.05;26.63;;;7.90;99.90;;;;;;5119746;27;20628;-79
2022/12/23 14:15:47;;;;;;;39.60;26.00;;;7.80;99.90;;;;;;5095537;28;20274;-79
2022/12/23 14:19:01;;;;;;;39.25;26.00;;;7.80;99.90;;;;;;5121300;27;20336;-76
2022/12/23 14:22:01;;;;;;;40.25;26.02;;;7.80;99.90;;;;;;5087667;27;20211;-80
2022/12/23 14:25:29;;;;;;;41.40;26.55;;;7.80;99.90;;;;;;5093624;27;20744;-79
2022/12/23 14:28:42;;;;;;;41.75;25.17;;;7.80;99.90;;;;;;5095323;27;20214;-79
2022/12/23 14:31:41;;;;;;;40.77;26.23;;;7.90;99.90;;;;;;5102249;27;20231;-78
2022/12/23 14:34:34;;;;;;;44.60;26.17;;;7.90;99.90;;;;;;5101818;27;20229;-78
2022/12/23 14:37:34;;;;;;;44.15;27.55;;;7.90;99.90;;;;;;5100616;27;20223;-79
2022/12/23 14:41:13;;;;;;;45.33;28.02;;;7.80;99.90;;;;;;5094083;27;20227;-78
2022/12/23 14:44:02;;;;;;;42.27;26.80;;;7.90;99.90;;;;;;5035945;28;20838;-79
2022/12/23 14:46:57;;;;;;;43.90;27.67;;;7.90;99.90;;;;;;5098622;27;20285;-79
2022/12/23 14:49:46;;;;;;;41.70;26.70;;;7.90;99.90;;;;;;5103536;27;20701;-78
2022/12/23 14:52:50;;;;;;;40.60;26.52;;;7.80;99.90;;;;;;5127242;27;20215;-79
2022/12/23 14:55:50;;;;;;;43.63;27.63;;;7.90;99.90;;;;;;5098939;27;20223;-79
2022/12/23 14:59:03;;;;;;;41.60;26.25;;;7.90;99.90;;;;;;5119445;27;20242;-80
2022/12/23 15:01:55;;;;;;;41.70;27.60;;;7.80;99.90;;;;;;5105320;27;20717;-79
2022/12/23 15:04:49;;;;;;;41.20;27.90;;;7.80;99.90;;;;;;5094913;28;20239;-78
2022/12/23 15:07:41;;;;;;;46.88;28.02;;;7.80;99.90;;;;;;5095781;28;20223;-79
2022/12/23 15:10:31;;;;;;;43.50;27.33;;;7.80;99.90;;;;;;5093717;27;20698;-78
2022/12/23 15:13:20;;;;;;;43.50;27.38;;;7.80;99.90;;;;;;5100729;27;20223;-79
2022/12/23 15:16:16;;;;;;;40.58;27.17;;;7.80;99.90;;;;;;5114790;27;20227;-78
2022/12/23 15:19:18;;;;;;;38.75;26.30;;;7.90;99.90;;;;;;5093154;28;20222;-79
2022/12/23 15:22:11;;;;;;;39.45;26.67;;;7.80;99.90;;;;;;5105101;27;20786;-80